LFPB/LBG METAR and TAF weather

Enter ICAO airport designator
Station Type Date Time Source
LFPB METAR 2022/11/27 09:30 UTC NOAA

LFPB 270930Z AUTO 15008KT 9999 BKN038 BKN049 OVC062 07/06 Q1020 TEMPO 4000 RA


Station Type Date Time Source
LFPB Decoded METAR 2022/11/27 09:30 UTC NOAA

Paris / Le Bourget, France (LFPB) 48-58N 002-27E 65M
Nov 27, 2022 - 04:30 AM EST / 2022.11.27 0930 UTC
Wind: from the SSE (150 degrees) at 9 MPH (8 KT):0
Visibility: greater than 7 mile(s):0
Sky conditions: overcast
Temperature: 44 F (7 C)
Dew Point: 42 F (6 C)
Relative Humidity: 93%
Pressure (altimeter): 30.12 in. Hg (1020 hPa)
ob: LFPB 270930Z AUTO 15008KT 9999 BKN038 BKN049 OVC062 07/06 Q1020 TEMPO 4000 RA
cycle: 9

Station Type Date Time Source
LFPB TAF 2022/11/27 06:21 UTC NOAA

TAF TAF LFPB 270500Z 2706/2806 16010KT CAVOK PROB40
TEMPO 2710/2712 4000 RA
BECMG 2800/2802 19007KT BKN014
TEMPO 2801/2804 4000 RA
BECMG 2802/2804 BKN008

Example: see airport list